sensor_id;sensor_type;location;lat;lon;timestamp;temperature;humidity
5041;DHT22;2539;52.568;13.364;2023-09-30T00:01:22;16.50;99.90
5041;DHT22;2539;52.568;13.364;2023-09-30T00:03:48;16.50;99.90
5041;DHT22;2539;52.568;13.364;2023-09-30T00:06:15;16.50;99.90
5041;DHT22;2539;52.568;13.364;2023-09-30T00:08:41;16.50;99.90
5041;DHT22;2539;52.568;13.364;2023-09-30T00:11:10;16.40;99.90
5041;DHT22;2539;52.568;13.364;2023-09-30T00:13:36;16.30;99.90
5041;DHT22;2539;52.568;13.364;2023-09-30T00:16:03;16.30;99.90
5041;DHT22;2539;52.568;13.364;2023-09-30T00:18:29;16.20;99.90
5041;DHT22;2539;52.568;13.364;2023-09-30T00:20:56;16.10;99.90
5041;DHT22;2539;52.568;13.364;2023-09-30T00:23:23;16.10;99.90
5041;DHT22;2539;52.568;13.364;2023-09-30T00:25:49;16.00;99.90
5041;DHT22;2539;52.568;13.364;2023-09-30T00:28:16;15.90;99.90
5041;DHT22;2539;52.568;13.364;2023-09-30T00:30:42;15.90;99.90
5041;DHT22;2539;52.568;13.364;2023-09-30T00:33:12;15.80;99.90
5041;DHT22;2539;52.568;13.364;2023-09-30T00:35:38;15.70;99.90
5041;DHT22;2539;52.568;13.364;2023-09-30T00:38:04;15.70;99.90
5041;DHT22;2539;52.568;13.364;2023-09-30T00:40:30;15.60;99.90
5041;DHT22;2539;52.568;13.364;2023-09-30T00:42:58;15.60;99.90
5041;DHT22;2539;52.568;13.364;2023-09-30T00:45:24;15.50;99.90
5041;DHT22;2539;52.568;13.364;2023-09-30T00:47:50;15.50;99.90
5041;DHT22;2539;52.568;13.364;2023-09-30T00:50:19;15.40;99.90
5041;DHT22;2539;52.568;13.364;2023-09-30T00:52:48;15.40;99.90
5041;DHT22;2539;52.568;13.364;2023-09-30T00:55:15;15.40;99.90
5041;DHT22;2539;52.568;13.364;2023-09-30T00:57:42;15.30;99.90
5041;DHT22;2539;52.568;13.364;2023-09-30T01:00:10;15.30;99.90
5041;DHT22;2539;52.568;13.364;2023-09-30T01:02:41;15.20;99.90
5041;DHT22;2539;52.568;13.364;2023-09-30T01:05:09;15.20;99.90
5041;DHT22;2539;52.568;13.364;2023-09-30T01:07:35;15.10;99.90
5041;DHT22;2539;52.568;13.364;2023-09-30T01:10:02;15.10;99.90
5041;DHT22;2539;52.568;13.364;2023-09-30T01:12:29;15.00;99.90
5041;DHT22;2539;52.568;13.364;2023-09-30T01:14:58;15.00;99.90
5041;DHT22;2539;52.568;13.364;2023-09-30T01:17:26;15.00;99.90
5041;DHT22;2539;52.568;13.364;2023-09-30T01:19:52;15.00;99.90
5041;DHT22;2539;52.568;13.364;2023-09-30T01:22:18;14.80;99.90
5041;DHT22;2539;52.568;13.364;2023-09-30T01:24:45;14.80;99.90
5041;DHT22;2539;52.568;13.364;2023-09-30T01:27:13;14.70;99.90
5041;DHT22;2539;52.568;13.364;2023-09-30T01:29:42;14.60;99.90
5041;DHT22;2539;52.568;13.364;2023-09-30T01:32:08;14.60;99.90
5041;DHT22;2539;52.568;13.364;2023-09-30T01:34:36;14.60;99.90
5041;DHT22;2539;52.568;13.364;2023-09-30T01:37:02;14.60;99.90
5041;DHT22;2539;52.568;13.364;2023-09-30T01:39:29;14.50;99.90
5041;DHT22;2539;52.568;13.364;2023-09-30T01:41:56;14.50;99.90
5041;DHT22;2539;52.568;13.364;2023-09-30T01:44:22;14.50;99.90
5041;DHT22;2539;52.568;13.364;2023-09-30T01:46:49;14.50;99.90
5041;DHT22;2539;52.568;13.364;2023-09-30T01:49:15;14.50;99.90
5041;DHT22;2539;52.568;13.364;2023-09-30T01:51:41;14.40;99.90
5041;DHT22;2539;52.568;13.364;2023-09-30T01:54:07;14.40;99.90
5041;DHT22;2539;52.568;13.364;2023-09-30T01:56:34;14.40;99.90
5041;DHT22;2539;52.568;13.364;2023-09-30T01:59:00;14.40;99.90
5041;DHT22;2539;52.568;13.364;2023-09-30T02:01:26;14.30;99.90
5041;DHT22;2539;52.568;13.364;2023-09-30T02:03:51;14.30;99.90
5041;DHT22;2539;52.568;13.364;2023-09-30T02:06:17;14.30;99.90
5041;DHT22;2539;52.568;13.364;2023-09-30T02:08:43;14.30;99.90
5041;DHT22;2539;52.568;13.364;2023-09-30T02:11:10;14.30;99.90
5041;DHT22;2539;52.568;13.364;2023-09-30T02:13:40;14.20;99.90
5041;DHT22;2539;52.568;13.364;2023-09-30T02:16:11;14.20;99.90
5041;DHT22;2539;52.568;13.364;2023-09-30T02:18:38;14.10;99.90
5041;DHT22;2539;52.568;13.364;2023-09-30T02:21:07;14.10;99.90
5041;DHT22;2539;52.568;13.364;2023-09-30T02:23:35;14.10;99.90
5041;DHT22;2539;52.568;13.364;2023-09-30T02:26:02;14.00;99.90
5041;DHT22;2539;52.568;13.364;2023-09-30T02:28:29;14.00;99.90
5041;DHT22;2539;52.568;13.364;2023-09-30T02:30:59;14.00;99.90
5041;DHT22;2539;52.568;13.364;2023-09-30T02:33:26;14.00;99.90
5041;DHT22;2539;52.568;13.364;2023-09-30T02:35:53;13.90;99.90
5041;DHT22;2539;52.568;13.364;2023-09-30T02:38:19;13.90;99.90
5041;DHT22;2539;52.568;13.364;2023-09-30T02:40:48;13.90;99.90
5041;DHT22;2539;52.568;13.364;2023-09-30T02:43:14;13.90;99.90
5041;DHT22;2539;52.568;13.364;2023-09-30T02:45:41;13.90;99.90
5041;DHT22;2539;52.568;13.364;2023-09-30T02:48:07;13.90;99.90
5041;DHT22;2539;52.568;13.364;2023-09-30T02:50:34;13.90;99.90
5041;DHT22;2539;52.568;13.364;2023-09-30T02:53:01;13.80;99.90
5041;DHT22;2539;52.568;13.364;2023-09-30T02:55:27;13.80;99.90
5041;DHT22;2539;52.568;13.364;2023-09-30T02:57:53;13.70;99.90
5041;DHT22;2539;52.568;13.364;2023-09-30T03:00:21;13.70;99.90
5041;DHT22;2539;52.568;13.364;2023-09-30T03:02:55;13.70;99.90
5041;DHT22;2539;52.568;13.364;2023-09-30T03:05:23;13.70;99.90
5041;DHT22;2539;52.568;13.364;2023-09-30T03:07:49;13.60;99.90
5041;DHT22;2539;52.568;13.364;2023-09-30T03:10:16;13.60;99.90
5041;DHT22;2539;52.568;13.364;2023-09-30T03:12:53;13.70;99.90
5041;DHT22;2539;52.568;13.364;2023-09-30T03:15:20;13.60;99.90
5041;DHT22;2539;52.568;13.364;2023-09-30T03:17:46;13.60;99.90
5041;DHT22;2539;52.568;13.364;2023-09-30T03:20:13;13.60;99.90
5041;DHT22;2539;52.568;13.364;2023-09-30T03:22:41;13.50;99.90
5041;DHT22;2539;52.568;13.364;2023-09-30T03:25:10;13.60;99.90
5041;DHT22;2539;52.568;13.364;2023-09-30T03:27:38;13.50;99.90
5041;DHT22;2539;52.568;13.364;2023-09-30T03:30:05;13.50;99.90
5041;DHT22;2539;52.568;13.364;2023-09-30T03:32:32;13.50;99.90
5041;DHT22;2539;52.568;13.364;2023-09-30T03:35:00;13.50;99.90
5041;DHT22;2539;52.568;13.364;2023-09-30T03:37:27;13.50;99.90
5041;DHT22;2539;52.568;13.364;2023-09-30T03:39:57;13.40;99.90
5041;DHT22;2539;52.568;13.364;2023-09-30T03:42:23;13.50;99.90
5041;DHT22;2539;52.568;13.364;2023-09-30T03:44:50;13.40;99.90
5041;DHT22;2539;52.568;13.364;2023-09-30T03:47:18;13.30;99.90
5041;DHT22;2539;52.568;13.364;2023-09-30T03:49:44;13.40;99.90
5041;DHT22;2539;52.568;13.364;2023-09-30T03:52:11;13.40;99.90
5041;DHT22;2539;52.568;13.364;2023-09-30T03:54:38;13.30;99.90
5041;DHT22;2539;52.568;13.364;2023-09-30T03:57:04;13.30;99.90
5041;DHT22;2539;52.568;13.364;2023-09-30T03:59:30;13.30;99.90
5041;DHT22;2539;52.568;13.364;2023-09-30T04:01:57;13.30;99.90
5041;DHT22;2539;52.568;13.364;2023-09-30T04:04:24;13.30;99.90
5041;DHT22;2539;52.568;13.364;2023-09-30T04:06:54;13.20;99.90
5041;DHT22;2539;52.568;13.364;2023-09-30T04:09:20;13.20;99.90
5041;DHT22;2539;52.568;13.364;2023-09-30T04:11:46;13.20;99.90
5041;DHT22;2539;52.568;13.364;2023-09-30T04:14:12;13.20;99.90
5041;DHT22;2539;52.568;13.364;2023-09-30T04:16:37;13.20;99.90
5041;DHT22;2539;52.568;13.364;2023-09-30T04:19:03;13.10;99.90
5041;DHT22;2539;52.568;13.364;2023-09-30T04:21:30;13.10;99.90
5041;DHT22;2539;52.568;13.364;2023-09-30T04:24:00;13.20;99.90
5041;DHT22;2539;52.568;13.364;2023-09-30T04:26:27;13.10;99.90
5041;DHT22;2539;52.568;13.364;2023-09-30T04:28:53;13.00;99.90
5041;DHT22;2539;52.568;13.364;2023-09-30T04:31:20;13.10;99.90
5041;DHT22;2539;52.568;13.364;2023-09-30T04:33:49;13.00;99.90
5041;DHT22;2539;52.568;13.364;2023-09-30T04:36:19;13.00;99.90
5041;DHT22;2539;52.568;13.364;2023-09-30T04:38:46;13.00;99.90
5041;DHT22;2539;52.568;13.364;2023-09-30T04:41:12;12.90;99.90
5041;DHT22;2539;52.568;13.364;2023-09-30T04:43:39;12.90;99.90
5041;DHT22;2539;52.568;13.364;2023-09-30T04:46:05;12.90;99.90
5041;DHT22;2539;52.568;13.364;2023-09-30T04:48:33;12.90;99.90
5041;DHT22;2539;52.568;13.364;2023-09-30T04:51:00;12.80;99.90
5041;DHT22;2539;52.568;13.364;2023-09-30T04:53:26;12.80;99.90
5041;DHT22;2539;52.568;13.364;2023-09-30T04:55:52;12.80;99.90
5041;DHT22;2539;52.568;13.364;2023-09-30T04:58:19;12.80;99.90
5041;DHT22;2539;52.568;13.364;2023-09-30T05:00:45;12.80;99.90
5041;DHT22;2539;52.568;13.364;2023-09-30T05:03:11;12.80;99.90
5041;DHT22;2539;52.568;13.364;2023-09-30T05:05:37;12.80;99.90
5041;DHT22;2539;52.568;13.364;2023-09-30T05:08:04;12.80;99.90
5041;DHT22;2539;52.568;13.364;2023-09-30T05:10:30;12.80;99.90
5041;DHT22;2539;52.568;13.364;2023-09-30T05:12:56;12.70;99.90
5041;DHT22;2539;52.568;13.364;2023-09-30T05:15:23;12.70;99.90
5041;DHT22;2539;52.568;13.364;2023-09-30T05:17:49;12.60;99.90
5041;DHT22;2539;52.568;13.364;2023-09-30T05:20:16;12.70;99.90
5041;DHT22;2539;52.568;13.364;2023-09-30T05:22:46;12.70;99.90
5041;DHT22;2539;52.568;13.364;2023-09-30T05:25:16;12.80;99.90
5041;DHT22;2539;52.568;13.364;2023-09-30T05:27:45;12.70;99.90
5041;DHT22;2539;52.568;13.364;2023-09-30T05:30:14;12.70;99.90
5041;DHT22;2539;52.568;13.364;2023-09-30T05:32:42;12.70;99.90
5041;DHT22;2539;52.568;13.364;2023-09-30T05:35:08;12.70;99.90
5041;DHT22;2539;52.568;13.364;2023-09-30T05:37:43;12.70;99.90
5041;DHT22;2539;52.568;13.364;2023-09-30T05:40:11;12.80;99.90
5041;DHT22;2539;52.568;13.364;2023-09-30T05:42:54;12.80;99.90
5041;DHT22;2539;52.568;13.364;2023-09-30T05:45:22;12.90;99.90
5041;DHT22;2539;52.568;13.364;2023-09-30T05:47:49;12.90;99.90
5041;DHT22;2539;52.568;13.364;2023-09-30T05:50:19;13.00;99.90
5041;DHT22;2539;52.568;13.364;2023-09-30T05:52:54;13.10;99.90
5041;DHT22;2539;52.568;13.364;2023-09-30T05:55:21;13.10;99.90
5041;DHT22;2539;52.568;13.364;2023-09-30T05:57:49;13.20;99.90
5041;DHT22;2539;52.568;13.364;2023-09-30T06:00:16;13.30;99.90
5041;DHT22;2539;52.568;13.364;2023-09-30T06:02:49;13.40;99.90
5041;DHT22;2539;52.568;13.364;2023-09-30T06:05:17;13.50;99.90
5041;DHT22;2539;52.568;13.364;2023-09-30T06:07:49;13.50;99.90
5041;DHT22;2539;52.568;13.364;2023-09-30T06:10:15;13.50;99.90
5041;DHT22;2539;52.568;13.364;2023-09-30T06:12:49;13.60;99.90
5041;DHT22;2539;52.568;13.364;2023-09-30T06:15:21;13.70;99.90
5041;DHT22;2539;52.568;13.364;2023-09-30T06:17:49;13.70;99.90
5041;DHT22;2539;52.568;13.364;2023-09-30T06:20:16;13.80;99.90
5041;DHT22;2539;52.568;13.364;2023-09-30T06:22:46;13.80;99.90
5041;DHT22;2539;52.568;13.364;2023-09-30T06:25:16;14.00;99.90
5041;DHT22;2539;52.568;13.364;2023-09-30T06:27:43;13.80;99.90
5041;DHT22;2539;52.568;13.364;2023-09-30T06:30:10;13.80;99.90
5041;DHT22;2539;52.568;13.364;2023-09-30T06:32:37;13.80;99.90
5041;DHT22;2539;52.568;13.364;2023-09-30T06:35:04;13.80;99.90
5041;DHT22;2539;52.568;13.364;2023-09-30T06:37:32;13.70;99.90
5041;DHT22;2539;52.568;13.364;2023-09-30T06:39:59;13.70;99.90
5041;DHT22;2539;52.568;13.364;2023-09-30T06:42:26;13.70;99.90
5041;DHT22;2539;52.568;13.364;2023-09-30T06:44:53;13.70;99.90
5041;DHT22;2539;52.568;13.364;2023-09-30T06:47:19;13.80;99.90
5041;DHT22;2539;52.568;13.364;2023-09-30T06:49:47;13.90;99.90
5041;DHT22;2539;52.568;13.364;2023-09-30T06:52:13;14.20;99.90
5041;DHT22;2539;52.568;13.364;2023-09-30T06:54:40;14.20;99.90
5041;DHT22;2539;52.568;13.364;2023-09-30T06:57:06;14.50;99.90
5041;DHT22;2539;52.568;13.364;2023-09-30T06:59:34;14.60;99.90
5041;DHT22;2539;52.568;13.364;2023-09-30T07:02:00;14.90;99.90
5041;DHT22;2539;52.568;13.364;2023-09-30T07:04:26;14.90;99.90
5041;DHT22;2539;52.568;13.364;2023-09-30T07:06:53;15.00;99.90
5041;DHT22;2539;52.568;13.364;2023-09-30T07:09:19;14.90;99.90
5041;DHT22;2539;52.568;13.364;2023-09-30T07:11:46;15.10;99.90
5041;DHT22;2539;52.568;13.364;2023-09-30T07:14:12;15.10;99.90
5041;DHT22;2539;52.568;13.364;2023-09-30T07:16:39;14.70;99.90
5041;DHT22;2539;52.568;13.364;2023-09-30T07:19:06;14.90;99.90
5041;DHT22;2539;52.568;13.364;2023-09-30T07:21:33;15.10;99.90
5041;DHT22;2539;52.568;13.364;2023-09-30T07:23:59;15.10;99.90
5041;DHT22;2539;52.568;13.364;2023-09-30T07:26:26;14.80;99.90
5041;DHT22;2539;52.568;13.364;2023-09-30T07:28:53;14.80;99.90
5041;DHT22;2539;52.568;13.364;2023-09-30T07:31:22;14.60;99.90
5041;DHT22;2539;52.568;13.364;2023-09-30T07:33:49;14.80;99.90
5041;DHT22;2539;52.568;13.364;2023-09-30T07:36:15;14.80;99.90
5041;DHT22;2539;52.568;13.364;2023-09-30T07:38:42;14.80;99.90
5041;DHT22;2539;52.568;13.364;2023-09-30T07:41:08;15.00;99.90
5041;DHT22;2539;52.568;13.364;2023-09-30T07:43:36;15.10;99.90
5041;DHT22;2539;52.568;13.364;2023-09-30T07:46:06;15.20;99.90
5041;DHT22;2539;52.568;13.364;2023-09-30T07:48:34;15.20;99.90
5041;DHT22;2539;52.568;13.364;2023-09-30T07:51:01;15.10;99.90
5041;DHT22;2539;52.568;13.364;2023-09-30T07:53:28;15.20;99.90
5041;DHT22;2539;52.568;13.364;2023-09-30T07:55:55;15.20;99.90
5041;DHT22;2539;52.568;13.364;2023-09-30T07:58:22;15.20;99.90
5041;DHT22;2539;52.568;13.364;2023-09-30T08:00:48;15.20;99.90
5041;DHT22;2539;52.568;13.364;2023-09-30T08:03:15;15.40;99.90
5041;DHT22;2539;52.568;13.364;2023-09-30T08:05:42;15.20;99.90
5041;DHT22;2539;52.568;13.364;2023-09-30T08:08:08;15.30;99.90
5041;DHT22;2539;52.568;13.364;2023-09-30T08:10:34;15.30;99.90
5041;DHT22;2539;52.568;13.364;2023-09-30T08:13:02;15.40;99.90
5041;DHT22;2539;52.568;13.364;2023-09-30T08:15:28;15.40;99.90
5041;DHT22;2539;52.568;13.364;2023-09-30T08:17:54;15.70;99.90
5041;DHT22;2539;52.568;13.364;2023-09-30T08:20:20;15.70;99.90
5041;DHT22;2539;52.568;13.364;2023-09-30T08:22:46;16.00;99.90
5041;DHT22;2539;52.568;13.364;2023-09-30T08:25:13;16.10;99.90
5041;DHT22;2539;52.568;13.364;2023-09-30T08:27:39;16.40;99.90
5041;DHT22;2539;52.568;13.364;2023-09-30T08:30:06;16.00;99.90
5041;DHT22;2539;52.568;13.364;2023-09-30T08:32:35;15.90;99.90
5041;DHT22;2539;52.568;13.364;2023-09-30T08:35:02;15.70;99.90
5041;DHT22;2539;52.568;13.364;2023-09-30T08:37:31;15.80;99.90
5041;DHT22;2539;52.568;13.364;2023-09-30T08:39:57;15.70;99.90
5041;DHT22;2539;52.568;13.364;2023-09-30T08:42:23;15.40;99.90
5041;DHT22;2539;52.568;13.364;2023-09-30T08:44:55;15.30;99.90
5041;DHT22;2539;52.568;13.364;2023-09-30T08:47:21;15.30;99.90
5041;DHT22;2539;52.568;13.364;2023-09-30T08:49:51;15.40;99.90
5041;DHT22;2539;52.568;13.364;2023-09-30T08:52:23;15.50;99.90
5041;DHT22;2539;52.568;13.364;2023-09-30T08:54:50;15.40;99.90
5041;DHT22;2539;52.568;13.364;2023-09-30T08:57:18;15.40;99.90
5041;DHT22;2539;52.568;13.364;2023-09-30T08:59:46;15.50;99.90
5041;DHT22;2539;52.568;13.364;2023-09-30T09:02:13;15.60;99.90
5041;DHT22;2539;52.568;13.364;2023-09-30T09:04:40;15.60;99.90
5041;DHT22;2539;52.568;13.364;2023-09-30T09:07:07;15.70;99.90
5041;DHT22;2539;52.568;13.364;2023-09-30T09:09:33;15.70;99.90
5041;DHT22;2539;52.568;13.364;2023-09-30T09:11:59;15.90;99.90
5041;DHT22;2539;52.568;13.364;2023-09-30T09:14:39;15.90;99.90
5041;DHT22;2539;52.568;13.364;2023-09-30T09:17:07;16.20;99.90
5041;DHT22;2539;52.568;13.364;2023-09-30T09:19:34;16.30;99.90
5041;DHT22;2539;52.568;13.364;2023-09-30T09:22:02;16.30;99.90
5041;DHT22;2539;52.568;13.364;2023-09-30T09:24:35;16.50;99.90
5041;DHT22;2539;52.568;13.364;2023-09-30T09:27:10;16.70;99.90
5041;DHT22;2539;52.568;13.364;2023-09-30T09:29:37;16.80;99.90
5041;DHT22;2539;52.568;13.364;2023-09-30T09:32:08;16.80;99.90
5041;DHT22;2539;52.568;13.364;2023-09-30T09:34:35;16.90;99.90
5041;DHT22;2539;52.568;13.364;2023-09-30T09:37:16;16.70;99.90
5041;DHT22;2539;52.568;13.364;2023-09-30T09:39:53;16.70;99.90
5041;DHT22;2539;52.568;13.364;2023-09-30T09:42:26;16.90;99.90
5041;DHT22;2539;52.568;13.364;2023-09-30T09:44:59;17.00;99.90
5041;DHT22;2539;52.568;13.364;2023-09-30T09:47:26;17.00;99.90
5041;DHT22;2539;52.568;13.364;2023-09-30T09:49:53;17.10;99.90
5041;DHT22;2539;52.568;13.364;2023-09-30T09:52:20;17.10;99.90
5041;DHT22;2539;52.568;13.364;2023-09-30T09:54:47;17.10;99.90
5041;DHT22;2539;52.568;13.364;2023-09-30T09:57:16;17.10;99.90
5041;DHT22;2539;52.568;13.364;2023-09-30T09:59:43;16.90;99.90
5041;DHT22;2539;52.568;13.364;2023-09-30T10:02:15;16.90;99.90
5041;DHT22;2539;52.568;13.364;2023-09-30T10:04:43;17.00;99.90
5041;DHT22;2539;52.568;13.364;2023-09-30T10:09:48;17.30;99.90
5041;DHT22;2539;52.568;13.364;2023-09-30T10:12:17;17.50;99.90
5041;DHT22;2539;52.568;13.364;2023-09-30T10:14:44;17.40;99.90
5041;DHT22;2539;52.568;13.364;2023-09-30T10:17:10;17.20;99.90
5041;DHT22;2539;52.568;13.364;2023-09-30T10:20:04;17.00;99.90
5041;DHT22;2539;52.568;13.364;2023-09-30T10:22:31;17.00;99.90
5041;DHT22;2539;52.568;13.364;2023-09-30T10:24:59;17.30;99.90
5041;DHT22;2539;52.568;13.364;2023-09-30T10:35:40;17.50;99.90
5041;DHT22;2539;52.568;13.364;2023-09-30T10:40:51;17.40;99.90
5041;DHT22;2539;52.568;13.364;2023-09-30T10:43:35;17.40;99.90
5041;DHT22;2539;52.568;13.364;2023-09-30T10:48:53;17.90;99.90
5041;DHT22;2539;52.568;13.364;2023-09-30T10:51:20;17.80;99.90
5041;DHT22;2539;52.568;13.364;2023-09-30T10:53:54;17.90;99.90
5041;DHT22;2539;52.568;13.364;2023-09-30T10:56:32;17.60;99.90
5041;DHT22;2539;52.568;13.364;2023-09-30T10:58:59;17.70;99.90
5041;DHT22;2539;52.568;13.364;2023-09-30T11:01:32;17.70;99.90
5041;DHT22;2539;52.568;13.364;2023-09-30T11:04:02;17.70;99.90
5041;DHT22;2539;52.568;13.364;2023-09-30T11:06:31;18.00;99.90
5041;DHT22;2539;52.568;13.364;2023-09-30T11:08:59;18.40;99.90
5041;DHT22;2539;52.568;13.364;2023-09-30T11:11:36;18.20;99.90
5041;DHT22;2539;52.568;13.364;2023-09-30T11:14:26;18.50;99.90
5041;DHT22;2539;52.568;13.364;2023-09-30T11:16:54;18.70;99.90
5041;DHT22;2539;52.568;13.364;2023-09-30T11:19:21;18.60;99.90
5041;DHT22;2539;52.568;13.364;2023-09-30T11:21:50;18.50;99.90
5041;DHT22;2539;52.568;13.364;2023-09-30T11:24:16;18.30;99.90
5041;DHT22;2539;52.568;13.364;2023-09-30T11:26:44;18.10;99.90
5041;DHT22;2539;52.568;13.364;2023-09-30T11:29:12;18.10;99.90
5041;DHT22;2539;52.568;13.364;2023-09-30T11:31:40;18.10;99.90
5041;DHT22;2539;52.568;13.364;2023-09-30T11:34:09;18.00;99.90
5041;DHT22;2539;52.568;13.364;2023-09-30T11:36:37;18.10;99.90
5041;DHT22;2539;52.568;13.364;2023-09-30T11:39:04;17.90;99.90
5041;DHT22;2539;52.568;13.364;2023-09-30T11:41:41;17.90;99.90
5041;DHT22;2539;52.568;13.364;2023-09-30T11:44:11;17.90;99.90
5041;DHT22;2539;52.568;13.364;2023-09-30T11:46:56;18.10;99.90
5041;DHT22;2539;52.568;13.364;2023-09-30T11:49:43;18.10;99.90
5041;DHT22;2539;52.568;13.364;2023-09-30T11:52:14;18.00;99.90
5041;DHT22;2539;52.568;13.364;2023-09-30T11:54:44;17.90;99.90
5041;DHT22;2539;52.568;13.364;2023-09-30T11:57:13;18.00;99.90
5041;DHT22;2539;52.568;13.364;2023-09-30T11:59:42;18.00;99.90
5041;DHT22;2539;52.568;13.364;2023-09-30T12:02:12;18.00;99.90
5041;DHT22;2539;52.568;13.364;2023-09-30T12:04:38;17.90;99.90
5041;DHT22;2539;52.568;13.364;2023-09-30T12:07:05;17.90;99.90
5041;DHT22;2539;52.568;13.364;2023-09-30T12:09:33;18.10;99.90
5041;DHT22;2539;52.568;13.364;2023-09-30T12:12:01;18.10;99.90
5041;DHT22;2539;52.568;13.364;2023-09-30T12:14:28;18.20;99.90
5041;DHT22;2539;52.568;13.364;2023-09-30T12:16:57;18.10;99.90
5041;DHT22;2539;52.568;13.364;2023-09-30T12:19:23;18.10;99.90
5041;DHT22;2539;52.568;13.364;2023-09-30T12:21:51;18.10;99.90
5041;DHT22;2539;52.568;13.364;2023-09-30T12:24:18;18.00;99.90
5041;DHT22;2539;52.568;13.364;2023-09-30T12:26:48;17.90;99.90
5041;DHT22;2539;52.568;13.364;2023-09-30T12:29:15;18.00;99.90
5041;DHT22;2539;52.568;13.364;2023-09-30T12:31:50;18.00;99.90
5041;DHT22;2539;52.568;13.364;2023-09-30T12:34:16;17.90;99.90
5041;DHT22;2539;52.568;13.364;2023-09-30T12:36:43;17.90;99.90
5041;DHT22;2539;52.568;13.364;2023-09-30T12:39:11;18.00;99.90
5041;DHT22;2539;52.568;13.364;2023-09-30T12:41:42;18.10;99.90
5041;DHT22;2539;52.568;13.364;2023-09-30T12:44:10;18.20;99.90
5041;DHT22;2539;52.568;13.364;2023-09-30T12:46:37;18.20;99.90
5041;DHT22;2539;52.568;13.364;2023-09-30T12:49:08;18.40;99.90
5041;DHT22;2539;52.568;13.364;2023-09-30T12:51:36;18.50;99.90
5041;DHT22;2539;52.568;13.364;2023-09-30T12:54:05;18.40;99.90
5041;DHT22;2539;52.568;13.364;2023-09-30T12:56:32;18.50;99.90
5041;DHT22;2539;52.568;13.364;2023-09-30T12:58:59;18.40;99.90
5041;DHT22;2539;52.568;13.364;2023-09-30T13:01:25;18.50;99.90
5041;DHT22;2539;52.568;13.364;2023-09-30T13:03:52;18.40;99.90
5041;DHT22;2539;52.568;13.364;2023-09-30T13:06:19;18.50;99.90
5041;DHT22;2539;52.568;13.364;2023-09-30T13:08:45;18.70;99.90
5041;DHT22;2539;52.568;13.364;2023-09-30T13:11:11;18.60;99.90
5041;DHT22;2539;52.568;13.364;2023-09-30T13:13:37;18.80;99.90
5041;DHT22;2539;52.568;13.364;2023-09-30T13:16:03;18.90;99.90
5041;DHT22;2539;52.568;13.364;2023-09-30T13:18:34;18.90;99.90
5041;DHT22;2539;52.568;13.364;2023-09-30T13:21:00;18.90;99.90
5041;DHT22;2539;52.568;13.364;2023-09-30T13:23:26;19.00;99.90
5041;DHT22;2539;52.568;13.364;2023-09-30T13:25:53;19.00;99.90
5041;DHT22;2539;52.568;13.364;2023-09-30T13:28:20;19.20;99.90
5041;DHT22;2539;52.568;13.364;2023-09-30T13:30:46;19.20;99.90
5041;DHT22;2539;52.568;13.364;2023-09-30T13:33:14;19.10;99.90
5041;DHT22;2539;52.568;13.364;2023-09-30T13:35:40;19.00;99.90
5041;DHT22;2539;52.568;13.364;2023-09-30T13:38:06;19.10;99.90
5041;DHT22;2539;52.568;13.364;2023-09-30T13:40:32;19.00;99.90
5041;DHT22;2539;52.568;13.364;2023-09-30T13:42:59;18.90;99.90
5041;DHT22;2539;52.568;13.364;2023-09-30T13:45:26;18.70;99.90
5041;DHT22;2539;52.568;13.364;2023-09-30T13:47:54;18.70;99.90
5041;DHT22;2539;52.568;13.364;2023-09-30T13:50:20;18.60;99.90
5041;DHT22;2539;52.568;13.364;2023-09-30T13:52:46;18.60;99.90
5041;DHT22;2539;52.568;13.364;2023-09-30T13:55:13;18.60;99.90
5041;DHT22;2539;52.568;13.364;2023-09-30T13:57:45;18.50;99.90
5041;DHT22;2539;52.568;13.364;2023-09-30T14:00:13;18.50;99.90
5041;DHT22;2539;52.568;13.364;2023-09-30T14:02:39;18.40;99.90
5041;DHT22;2539;52.568;13.364;2023-09-30T14:05:06;18.40;99.90
5041;DHT22;2539;52.568;13.364;2023-09-30T14:07:36;18.30;99.90
5041;DHT22;2539;52.568;13.364;2023-09-30T14:10:07;18.30;99.90
5041;DHT22;2539;52.568;13.364;2023-09-30T14:12:36;18.30;99.90
5041;DHT22;2539;52.568;13.364;2023-09-30T14:15:03;18.30;99.90
5041;DHT22;2539;52.568;13.364;2023-09-30T14:17:31;18.30;99.90
5041;DHT22;2539;52.568;13.364;2023-09-30T14:19:58;18.30;99.90
5041;DHT22;2539;52.568;13.364;2023-09-30T14:22:24;18.30;99.90
5041;DHT22;2539;52.568;13.364;2023-09-30T14:24:52;18.40;99.90
5041;DHT22;2539;52.568;13.364;2023-09-30T14:27:18;18.40;99.90
5041;DHT22;2539;52.568;13.364;2023-09-30T14:29:46;18.40;99.90
5041;DHT22;2539;52.568;13.364;2023-09-30T14:32:12;18.40;99.90
5041;DHT22;2539;52.568;13.364;2023-09-30T14:34:39;18.40;99.90
5041;DHT22;2539;52.568;13.364;2023-09-30T14:37:05;18.40;99.90
5041;DHT22;2539;52.568;13.364;2023-09-30T14:39:31;18.30;99.90
5041;DHT22;2539;52.568;13.364;2023-09-30T14:41:58;18.30;99.90
5041;DHT22;2539;52.568;13.364;2023-09-30T14:44:24;18.40;99.90
5041;DHT22;2539;52.568;13.364;2023-09-30T14:46:51;18.30;99.90
5041;DHT22;2539;52.568;13.364;2023-09-30T14:49:17;18.30;99.90
5041;DHT22;2539;52.568;13.364;2023-09-30T14:51:44;18.30;99.90
5041;DHT22;2539;52.568;13.364;2023-09-30T14:54:10;18.30;99.90
5041;DHT22;2539;52.568;13.364;2023-09-30T14:56:36;18.30;99.90
5041;DHT22;2539;52.568;13.364;2023-09-30T14:59:02;18.30;99.90
5041;DHT22;2539;52.568;13.364;2023-09-30T15:01:29;18.20;99.90
5041;DHT22;2539;52.568;13.364;2023-09-30T15:03:54;18.20;99.90
5041;DHT22;2539;52.568;13.364;2023-09-30T15:06:20;18.20;99.90
5041;DHT22;2539;52.568;13.364;2023-09-30T15:08:50;18.20;99.90
5041;DHT22;2539;52.568;13.364;2023-09-30T15:11:17;18.10;99.90
5041;DHT22;2539;52.568;13.364;2023-09-30T15:13:43;18.10;99.90
5041;DHT22;2539;52.568;13.364;2023-09-30T15:16:19;18.10;99.90
5041;DHT22;2539;52.568;13.364;2023-09-30T15:18:47;18.00;99.90
5041;DHT22;2539;52.568;13.364;2023-09-30T15:21:14;18.00;99.90
5041;DHT22;2539;52.568;13.364;2023-09-30T15:23:42;18.00;99.90
5041;DHT22;2539;52.568;13.364;2023-09-30T15:26:09;18.00;99.90
5041;DHT22;2539;52.568;13.364;2023-09-30T15:28:36;18.00;99.90
5041;DHT22;2539;52.568;13.364;2023-09-30T15:31:03;18.00;99.90
5041;DHT22;2539;52.568;13.364;2023-09-30T15:33:30;18.00;99.90
5041;DHT22;2539;52.568;13.364;2023-09-30T15:35:56;17.90;99.90
5041;DHT22;2539;52.568;13.364;2023-09-30T15:38:23;17.90;99.90
5041;DHT22;2539;52.568;13.364;2023-09-30T15:40:54;18.00;99.90
5041;DHT22;2539;52.568;13.364;2023-09-30T15:43:24;18.10;99.90
5041;DHT22;2539;52.568;13.364;2023-09-30T15:45:51;18.10;99.90
5041;DHT22;2539;52.568;13.364;2023-09-30T15:48:17;18.00;99.90
5041;DHT22;2539;52.568;13.364;2023-09-30T15:50:44;17.90;99.90
5041;DHT22;2539;52.568;13.364;2023-09-30T15:53:11;17.90;99.90
5041;DHT22;2539;52.568;13.364;2023-09-30T15:55:37;17.80;99.90
5041;DHT22;2539;52.568;13.364;2023-09-30T15:58:04;17.70;99.90
5041;DHT22;2539;52.568;13.364;2023-09-30T16:00:31;17.70;99.90
5041;DHT22;2539;52.568;13.364;2023-09-30T16:02:57;17.60;99.90
5041;DHT22;2539;52.568;13.364;2023-09-30T16:05:24;17.60;99.90